createdAt,value
2023-03-26T00:01:30.691Z,101530.49
2023-03-26T00:03:58.893Z,101533.92
2023-03-26T00:06:29.046Z,101534.49
2023-03-26T00:08:58.420Z,101530.34
2023-03-26T00:11:27.737Z,101526.88
2023-03-26T00:13:58.746Z,101521.75
2023-03-26T00:16:28.921Z,101517.52
2023-03-26T00:18:56.392Z,101516.16
2023-03-26T00:21:29.307Z,101516.36
2023-03-26T00:24:05.478Z,101523.67
2023-03-26T00:26:37.799Z,101531.41
2023-03-26T00:29:10.609Z,101538.54
2023-03-26T00:31:41.364Z,101542.30
2023-03-26T00:34:10.773Z,101540.76
2023-03-26T00:36:38.000Z,101534.44
2023-03-26T00:39:05.933Z,101526.23
2023-03-26T00:41:37.291Z,101520.55
2023-03-26T00:44:04.504Z,101521.04
2023-03-26T00:46:35.813Z,101528.70
2023-03-26T00:49:04.317Z,101538.13
2023-03-26T00:51:32.192Z,101540.75
2023-03-26T00:53:59.551Z,101535.26
2023-03-26T00:56:26.898Z,101526.24
2023-03-26T00:58:54.258Z,101517.61
2023-03-26T01:01:30.736Z,101518.44
2023-03-26T01:04:07.541Z,101521.04
2023-03-26T01:06:42.495Z,101521.14
2023-03-26T01:09:19.865Z,101519.13
2023-03-26T01:11:48.729Z,101521.83
2023-03-26T01:14:24.148Z,101524.17
2023-03-26T01:17:05.074Z,101522.05
2023-03-26T01:19:34.173Z,101522.86
2023-03-26T01:22:01.992Z,101523.59
2023-03-26T01:24:29.230Z,101531.58
2023-03-26T01:26:59.148Z,101532.56
2023-03-26T01:29:34.001Z,101525.78
2023-03-26T01:32:23.135Z,101524.39
2023-03-26T01:35:03.198Z,101514.52
2023-03-26T01:37:47.035Z,101514.34
2023-03-26T01:40:20.340Z,101510.38
2023-03-26T01:43:10.698Z,101506.60
2023-03-26T01:45:41.463Z,101501.55
2023-03-26T01:48:09.219Z,101507.11
2023-03-26T01:50:36.884Z,101503.94
2023-03-26T01:53:04.749Z,101503.73
2023-03-26T01:55:54.430Z,101503.89
2023-03-26T01:58:22.004Z,101495.23
2023-03-26T02:01:02.668Z,101492.73
2023-03-26T02:03:32.299Z,101488.80
2023-03-26T02:06:20.084Z,101490.19
2023-03-26T02:08:54.182Z,101489.82
2023-03-26T02:11:23.037Z,101489.31
2023-03-26T02:13:52.423Z,101485.77
2023-03-26T02:16:21.705Z,101481.98
2023-03-26T02:18:55.850Z,101479.31
2023-03-26T02:21:28.107Z,101473.74
2023-03-26T02:24:03.957Z,101468.46
2023-03-26T02:26:37.821Z,101470.78
2023-03-26T02:29:10.159Z,101465.08
2023-03-26T02:31:38.037Z,101464.54
2023-03-26T02:34:05.341Z,101471.04
2023-03-26T02:36:36.148Z,101477.11
2023-03-26T02:39:04.595Z,101481.18
2023-03-26T02:41:35.135Z,101487.80
2023-03-26T02:44:05.999Z,101493.50
2023-03-26T02:46:53.659Z,101494.89
2023-03-26T02:49:55.538Z,101497.15
2023-03-26T02:52:26.805Z,101495.95
2023-03-26T02:54:55.652Z,101493.98
2023-03-26T02:57:25.490Z,101494.35
2023-03-26T03:00:14.489Z,101489.10
2023-03-26T03:02:50.788Z,101487.08
2023-03-26T03:05:31.962Z,101486.80
2023-03-26T03:08:24.952Z,101481.19
2023-03-26T03:11:22.292Z,101474.73
2023-03-26T03:13:52.248Z,101465.92
2023-03-26T03:16:24.441Z,101462.44
2023-03-26T03:18:58.110Z,101458.90
2023-03-26T03:21:30.395Z,101451.83
2023-03-26T03:23:59.956Z,101456.20
2023-03-26T03:26:29.884Z,101460.61
2023-03-26T03:29:02.515Z,101465.90
2023-03-26T03:31:29.654Z,101471.61
2023-03-26T03:34:01.439Z,101475.83
2023-03-26T03:36:30.529Z,101474.92
2023-03-26T03:39:03.458Z,101477.61
2023-03-26T03:41:34.616Z,101476.82
2023-03-26T03:44:03.660Z,101478.02
2023-03-26T03:46:32.300Z,101475.79
2023-03-26T03:48:59.760Z,101474.72
2023-03-26T03:51:31.401Z,101478.56
2023-03-26T03:54:13.348Z,101477.41
2023-03-26T03:56:47.835Z,101480.52
2023-03-26T03:59:34.158Z,101482.88
2023-03-26T04:02:04.118Z,101486.20
2023-03-26T04:04:34.507Z,101484.98
2023-03-26T04:07:06.584Z,101481.89
2023-03-26T04:09:54.088Z,101482.48
2023-03-26T04:12:22.157Z,101479.67
2023-03-26T04:15:01.314Z,101482.53
2023-03-26T04:17:30.618Z,101485.50
2023-03-26T04:19:58.367Z,101486.18
2023-03-26T04:22:34.811Z,101486.07
2023-03-26T04:25:05.785Z,101488.61
2023-03-26T04:27:55.785Z,101492.94
2023-03-26T04:30:45.043Z,101486.58
2023-03-26T04:33:31.768Z,101484.93
2023-03-26T04:36:03.200Z,101483.70
2023-03-26T04:38:41.095Z,101484.27
2023-03-26T04:41:13.680Z,101484.09
2023-03-26T04:43:51.058Z,101486.96
2023-03-26T04:46:28.920Z,101486.61
2023-03-26T04:49:04.242Z,101492.14
2023-03-26T04:51:39.260Z,101487.92
2023-03-26T04:54:20.411Z,101487.63
2023-03-26T04:57:10.036Z,101487.06
2023-03-26T04:59:47.908Z,101492.48
2023-03-26T05:02:15.960Z,101495.75
2023-03-26T05:04:48.636Z,101496.40
2023-03-26T05:07:22.615Z,101497.11
2023-03-26T05:09:52.939Z,101500.38
2023-03-26T05:12:24.013Z,101497.55
2023-03-26T05:14:58.846Z,101492.88
2023-03-26T05:17:42.105Z,101494.96
2023-03-26T05:20:27.036Z,101496.11
2023-03-26T05:22:54.235Z,101497.83
2023-03-26T05:25:25.846Z,101500.27
2023-03-26T05:27:53.092Z,101499.83
2023-03-26T05:30:22.490Z,101499.59
2023-03-26T05:32:53.765Z,101501.10
2023-03-26T05:35:24.540Z,101502.05
2023-03-26T05:37:51.731Z,101500.03
2023-03-26T05:40:22.466Z,101497.61
2023-03-26T05:43:10.224Z,101499.39
2023-03-26T05:45:48.344Z,101497.55
2023-03-26T05:48:23.342Z,101498.19
2023-03-26T05:50:55.538Z,101497.04
2023-03-26T05:53:25.564Z,101499.66
2023-03-26T05:56:11.026Z,101500.83
2023-03-26T05:58:57.415Z,101499.02
2023-03-26T06:01:47.407Z,101501.94
2023-03-26T06:04:18.074Z,101506.88
2023-03-26T06:07:21.515Z,101508.55
2023-03-26T06:10:02.914Z,101513.31
2023-03-26T06:12:33.531Z,101505.75
2023-03-26T06:15:00.513Z,101503.35
2023-03-26T06:17:56.891Z,101510.56
2023-03-26T06:20:37.792Z,101518.27
2023-03-26T06:23:16.195Z,101516.37
2023-03-26T06:26:01.491Z,101510.75
2023-03-26T06:28:48.689Z,101510.78
2023-03-26T06:31:44.318Z,101516.48
2023-03-26T06:34:20.999Z,101519.89
2023-03-26T06:36:49.030Z,101522.35
2023-03-26T06:39:16.518Z,101525.77
2023-03-26T06:41:54.526Z,101534.30
2023-03-26T06:44:39.960Z,101545.33
2023-03-26T06:47:25.600Z,101549.85
2023-03-26T06:50:12.360Z,101550.71
2023-03-26T06:52:54.898Z,101547.31
2023-03-26T06:55:45.019Z,101544.98
2023-03-26T06:58:35.494Z,101544.20
2023-03-26T07:01:21.091Z,101542.41
2023-03-26T07:04:06.975Z,101536.96
2023-03-26T07:06:52.578Z,101534.75
2023-03-26T07:09:38.536Z,101526.77
2023-03-26T07:12:23.908Z,101535.27
2023-03-26T07:15:14.822Z,101537.53
2023-03-26T07:18:13.710Z,101540.23
2023-03-26T07:20:46.183Z,101548.52
2023-03-26T07:23:15.668Z,101551.20
2023-03-26T07:26:27.288Z,101551.16
2023-03-26T07:29:18.598Z,101557.83
2023-03-26T07:32:09.780Z,101565.13
2023-03-26T07:34:57.858Z,101561.80
2023-03-26T07:37:43.542Z,101558.80
2023-03-26T07:40:39.556Z,101565.72
2023-03-26T07:43:41.633Z,101568.48
2023-03-26T07:46:12.575Z,101569.65
2023-03-26T07:48:52.067Z,101577.90
2023-03-26T07:51:43.302Z,101583.77
2023-03-26T07:54:23.886Z,101582.46
2023-03-26T07:58:09.677Z,101586.41
2023-03-26T08:01:16.613Z,101584.13
2023-03-26T08:04:24.644Z,101586.23
2023-03-26T08:08:03.190Z,101588.77
2023-03-26T08:10:54.012Z,101589.70
2023-03-26T08:13:51.666Z,101590.58
2023-03-26T08:16:35.763Z,101591.67
2023-03-26T08:19:29.409Z,101587.89
2023-03-26T08:22:07.278Z,101591.14
2023-03-26T08:24:47.813Z,101592.30
2023-03-26T08:27:38.137Z,101595.81
2023-03-26T08:30:22.977Z,101598.59
2023-03-26T08:33:16.861Z,101594.30
2023-03-26T08:35:48.413Z,101599.83
2023-03-26T08:38:21.235Z,101600.65
2023-03-26T08:40:57.628Z,101601.67
2023-03-26T08:43:58.717Z,101598.82
2023-03-26T08:46:25.709Z,101602.30
2023-03-26T08:49:18.728Z,101596.21
2023-03-26T08:52:00.832Z,101598.17
2023-03-26T08:54:43.362Z,101602.73
2023-03-26T08:57:36.286Z,101599.75
2023-03-26T09:00:34.155Z,101602.52
2023-03-26T09:03:16.311Z,101601.10
2023-03-26T09:06:05.276Z,101595.98
2023-03-26T09:09:04.942Z,101596.73
2023-03-26T09:11:34.336Z,101591.28
2023-03-26T09:14:23.291Z,101591.60
2023-03-26T09:17:16.267Z,101588.80
2023-03-26T09:19:54.474Z,101588.52
2023-03-26T09:22:36.571Z,101586.89
2023-03-26T09:25:34.944Z,101591.13
2023-03-26T09:28:01.892Z,101588.70
2023-03-26T09:30:47.166Z,101586.70
2023-03-26T09:33:26.463Z,101583.80
2023-03-26T09:36:00.948Z,101583.54
2023-03-26T09:38:46.952Z,101581.36
2023-03-26T09:41:21.782Z,101578.05
2023-03-26T09:44:22.793Z,101578.05
2023-03-26T09:46:52.358Z,101577.11
2023-03-26T09:49:41.246Z,101575.75
2023-03-26T09:52:42.695Z,101578.48
2023-03-26T09:55:42.232Z,101576.00
2023-03-26T09:58:29.524Z,101571.88
2023-03-26T10:00:58.031Z,101565.15
2023-03-26T10:03:32.014Z,101565.98
2023-03-26T10:06:24.517Z,101565.20
2023-03-26T10:09:03.555Z,101567.24
2023-03-26T10:11:38.193Z,101565.44
2023-03-26T10:14:19.152Z,101568.41
2023-03-26T10:16:58.091Z,101564.64
2023-03-26T10:19:43.600Z,101568.09
2023-03-26T10:22:18.072Z,101562.87
2023-03-26T10:25:08.362Z,101562.43
2023-03-26T10:27:56.857Z,101567.09
2023-03-26T10:30:34.869Z,101567.01
2023-03-26T10:33:46.198Z,101566.02
2023-03-26T10:36:27.089Z,101563.39
2023-03-26T10:39:37.404Z,101557.77
2023-03-26T10:42:21.033Z,101555.19
2023-03-26T10:45:07.407Z,101558.68
2023-03-26T10:47:54.192Z,101563.65
2023-03-26T10:50:32.749Z,101569.56
2023-03-26T10:53:02.412Z,101566.94
2023-03-26T10:55:37.293Z,101562.84
2023-03-26T10:58:25.710Z,101562.34
2023-03-26T11:01:33.935Z,101560.09
2023-03-26T11:04:27.491Z,101557.74
2023-03-26T11:07:06.585Z,101557.27
2023-03-26T11:10:08.195Z,101553.73
2023-03-26T11:12:47.566Z,101553.19
2023-03-26T11:15:21.438Z,101550.17
2023-03-26T11:17:48.569Z,101552.15
2023-03-26T11:20:32.370Z,101543.69
2023-03-26T11:23:23.891Z,101548.28
2023-03-26T11:26:05.549Z,101542.66
2023-03-26T11:29:04.026Z,101545.80
2023-03-26T11:32:04.664Z,101539.67
2023-03-26T11:34:40.633Z,101537.33
2023-03-26T11:37:17.763Z,101528.11
2023-03-26T11:39:55.188Z,101530.92
2023-03-26T11:42:24.548Z,101527.78
2023-03-26T11:44:59.128Z,101519.96
2023-03-26T11:47:40.734Z,101516.27
2023-03-26T11:50:16.081Z,101516.65
2023-03-26T11:52:44.099Z,101511.36
2023-03-26T11:55:13.152Z,101504.80
2023-03-26T11:57:45.645Z,101502.05
2023-03-26T12:00:18.465Z,101497.65
2023-03-26T12:02:47.910Z,101494.90
2023-03-26T12:05:19.882Z,101490.14
2023-03-26T12:07:57.441Z,101484.25
2023-03-26T12:10:27.045Z,101485.04
2023-03-26T12:12:58.344Z,101475.82
2023-03-26T12:15:26.961Z,101473.33
2023-03-26T12:17:57.140Z,101470.92
2023-03-26T12:20:25.049Z,101469.30
2023-03-26T12:23:00.335Z,101469.41
2023-03-26T12:25:32.933Z,101467.63
2023-03-26T12:28:13.835Z,101461.65
2023-03-26T12:30:42.725Z,101460.08
2023-03-26T12:33:38.942Z,101461.61
2023-03-26T12:36:27.036Z,101451.65
2023-03-26T12:39:16.986Z,101450.33
2023-03-26T12:44:42.259Z,101447.73
2023-03-26T12:44:52.875Z,101441.75
2023-03-26T12:47:59.128Z,101437.35
2023-03-26T12:50:33.976Z,101431.46
2023-03-26T12:53:37.662Z,101428.23
2023-03-26T12:56:20.053Z,101423.41
2023-03-26T12:59:01.465Z,101414.94
2023-03-26T13:01:40.397Z,101414.98
2023-03-26T13:04:58.422Z,101410.94
2023-03-26T13:08:07.756Z,101414.59
2023-03-26T13:11:00.518Z,101410.91
2023-03-26T13:13:48.756Z,101404.50
2023-03-26T13:16:24.786Z,101401.16
2023-03-26T13:18:59.641Z,101397.13
2023-03-26T13:21:38.779Z,101399.13
2023-03-26T13:24:05.706Z,101394.84
2023-03-26T13:26:33.023Z,101390.66
2023-03-26T13:29:26.963Z,101384.03
2023-03-26T13:32:09.636Z,101381.00
2023-03-26T13:34:55.527Z,101376.08
2023-03-26T13:37:45.307Z,101375.33
2023-03-26T13:40:25.613Z,101370.91
2023-03-26T13:43:31.413Z,101365.15
2023-03-26T13:46:10.269Z,101356.73
2023-03-26T13:49:04.030Z,101352.70
2023-03-26T13:51:37.156Z,101346.36
2023-03-26T13:54:28.635Z,101342.80
2023-03-26T13:57:02.880Z,101338.00
2023-03-26T13:59:58.999Z,101336.91
2023-03-26T14:02:40.308Z,101333.05
2023-03-26T14:05:21.682Z,101326.55
2023-03-26T14:08:17.964Z,101328.88
2023-03-26T14:10:54.252Z,101323.79
2023-03-26T14:13:24.413Z,101320.80
2023-03-26T14:16:15.155Z,101327.24
2023-03-26T14:18:51.244Z,101325.23
2023-03-26T14:21:37.478Z,101324.30
2023-03-26T14:24:25.793Z,101329.00
2023-03-26T14:27:09.947Z,101329.18
2023-03-26T14:30:19.000Z,101330.55
2023-03-26T14:32:49.638Z,101329.36
2023-03-26T14:35:38.613Z,101327.51
2023-03-26T14:38:34.224Z,101319.41
2023-03-26T14:41:19.774Z,101319.45
2023-03-26T14:44:00.341Z,101316.36
2023-03-26T14:47:02.052Z,101319.33
2023-03-26T14:49:54.573Z,101315.58
2023-03-26T14:52:28.094Z,101318.39
2023-03-26T14:54:58.193Z,101317.42
2023-03-26T14:57:32.076Z,101311.09
2023-03-26T15:00:02.434Z,101312.91
2023-03-26T15:02:53.976Z,101314.39
2023-03-26T15:05:37.093Z,101315.19
2023-03-26T15:08:11.189Z,101316.60
2023-03-26T15:10:47.440Z,101319.09
2023-03-26T15:13:48.596Z,101319.70
2023-03-26T15:16:50.939Z,101315.34
2023-03-26T15:19:56.109Z,101313.36
2023-03-26T15:22:49.484Z,101308.20
2023-03-26T15:25:37.472Z,101303.91
2023-03-26T15:28:30.072Z,101300.63
2023-03-26T15:31:17.714Z,101299.04
2023-03-26T15:34:23.854Z,101299.52
2023-03-26T15:37:30.042Z,101295.65
2023-03-26T15:40:19.190Z,101296.34
2023-03-26T15:42:58.134Z,101292.70
2023-03-26T15:45:42.264Z,101285.94
2023-03-26T15:48:12.862Z,101283.30
2023-03-26T15:54:06.676Z,101277.11
2023-03-26T15:56:53.255Z,101275.48
2023-03-26T15:59:26.827Z,101268.12
2023-03-26T16:02:16.347Z,101262.97
2023-03-26T16:04:57.663Z,101255.48
2023-03-26T16:07:44.008Z,101251.36
2023-03-26T16:10:28.975Z,101246.66
2023-03-26T16:13:24.182Z,101245.66
2023-03-26T16:16:11.654Z,101240.52
2023-03-26T16:18:42.502Z,101244.88
2023-03-26T16:21:32.082Z,101245.61
2023-03-26T16:24:02.548Z,101247.30
2023-03-26T16:26:44.763Z,101251.71
2023-03-26T16:29:14.750Z,101251.65
2023-03-26T16:32:17.210Z,101250.19
2023-03-26T16:34:54.229Z,101250.92
2023-03-26T16:37:41.164Z,101247.08
2023-03-26T16:40:24.782Z,101248.02
2023-03-26T16:43:10.973Z,101245.30
2023-03-26T16:45:52.869Z,101250.95
2023-03-26T16:48:34.964Z,101250.07
2023-03-26T16:51:34.376Z,101252.48
2023-03-26T16:54:19.950Z,101245.26
2023-03-26T16:57:29.494Z,101244.88
2023-03-26T17:00:08.373Z,101245.44
2023-03-26T17:03:23.252Z,101239.70
2023-03-26T17:05:50.365Z,101231.98
2023-03-26T17:08:51.881Z,101230.29
2023-03-26T17:11:24.771Z,101231.86
2023-03-26T17:14:15.190Z,101232.39
2023-03-26T17:17:05.842Z,101237.65
2023-03-26T17:20:28.028Z,101243.92
2023-03-26T17:23:05.755Z,101250.26
2023-03-26T17:25:44.842Z,101248.56
2023-03-26T17:28:43.744Z,101243.23
2023-03-26T17:31:36.726Z,101237.23
2023-03-26T17:34:38.997Z,101237.70
2023-03-26T17:37:11.895Z,101233.11
2023-03-26T17:39:47.151Z,101229.71
2023-03-26T17:42:28.065Z,101219.70
2023-03-26T17:45:30.720Z,101219.02
2023-03-26T17:48:02.874Z,101221.63
2023-03-26T17:50:35.172Z,101225.63
2023-03-26T17:53:06.628Z,101224.45
2023-03-26T17:55:37.721Z,101229.41
2023-03-26T17:58:25.720Z,101229.59
2023-03-26T18:01:06.431Z,101232.91
2023-03-26T18:03:44.371Z,101231.56
2023-03-26T18:06:51.980Z,101228.54
2023-03-26T18:09:29.881Z,101233.33
2023-03-26T18:12:15.125Z,101225.11
2023-03-26T18:15:27.462Z,101224.45
2023-03-26T18:18:13.363Z,101222.07
2023-03-26T18:20:47.193Z,101221.58
2023-03-26T18:23:35.814Z,101217.98
2023-03-26T18:26:16.400Z,101221.45
2023-03-26T18:28:49.467Z,101223.72
2023-03-26T18:31:20.704Z,101224.34
2023-03-26T18:33:51.248Z,101226.74
2023-03-26T18:36:18.903Z,101225.15
2023-03-26T18:38:47.074Z,101219.20
2023-03-26T18:41:31.443Z,101218.69
2023-03-26T18:44:04.515Z,101218.94
2023-03-26T18:46:34.179Z,101218.60
2023-03-26T18:49:03.160Z,101223.73
2023-03-26T18:51:43.261Z,101230.98
2023-03-26T18:54:21.547Z,101234.38
2023-03-26T18:56:53.250Z,101231.52
2023-03-26T18:59:35.436Z,101238.27
2023-03-26T19:02:14.629Z,101233.05
2023-03-26T19:04:46.077Z,101229.47
2023-03-26T19:07:26.622Z,101227.56
2023-03-26T19:09:56.704Z,101223.98
2023-03-26T19:12:34.209Z,101215.53
2023-03-26T19:15:17.587Z,101213.78
2023-03-26T19:17:50.085Z,101209.75
2023-03-26T19:20:24.469Z,101209.32
2023-03-26T19:22:52.286Z,101206.78
2023-03-26T19:25:31.823Z,101205.09
2023-03-26T19:27:59.500Z,101198.44
2023-03-26T19:30:33.018Z,101199.48
2023-03-26T19:33:12.771Z,101199.65
2023-03-26T19:35:43.709Z,101198.39
2023-03-26T19:38:21.694Z,101195.73
2023-03-26T19:40:51.154Z,101193.88
2023-03-26T19:43:19.389Z,101197.27
2023-03-26T19:45:59.701Z,101194.67
2023-03-26T19:48:46.844Z,101186.84
2023-03-26T19:51:31.659Z,101182.98
2023-03-26T19:54:01.305Z,101180.98
2023-03-26T19:56:28.987Z,101176.17
2023-03-26T19:58:57.142Z,101171.63
2023-03-26T20:01:26.996Z,101167.27
2023-03-26T20:04:04.370Z,101166.44
2023-03-26T20:06:43.076Z,101163.73
2023-03-26T20:09:14.402Z,101167.70
2023-03-26T20:11:41.676Z,101163.52
2023-03-26T20:14:17.522Z,101167.11
2023-03-26T20:16:45.563Z,101166.28
2023-03-26T20:19:14.552Z,101166.40
2023-03-26T20:21:41.892Z,101162.36
2023-03-26T20:24:15.195Z,101163.33
2023-03-26T20:26:42.688Z,101162.52
2023-03-26T20:29:10.496Z,101163.05
2023-03-26T20:31:38.453Z,101167.60
2023-03-26T20:34:13.960Z,101167.88
2023-03-26T20:36:41.170Z,101166.49
2023-03-26T20:39:08.478Z,101166.07
2023-03-26T20:41:39.607Z,101161.73
2023-03-26T20:44:13.939Z,101161.84
2023-03-26T20:46:45.113Z,101160.45
2023-03-26T20:49:15.270Z,101160.55
2023-03-26T20:51:43.978Z,101151.38
2023-03-26T20:54:21.614Z,101139.11
2023-03-26T20:56:49.399Z,101137.04
2023-03-26T20:59:21.849Z,101143.37
2023-03-26T21:01:50.782Z,101140.88
2023-03-26T21:04:17.913Z,101136.69
2023-03-26T21:06:45.863Z,101132.45
2023-03-26T21:09:16.090Z,101123.88
2023-03-26T21:12:17.284Z,101130.38
2023-03-26T21:14:47.127Z,101133.09
2023-03-26T21:17:22.449Z,101132.41
2023-03-26T21:19:50.357Z,101129.98
2023-03-26T21:22:29.095Z,101129.83
2023-03-26T21:24:59.319Z,101121.70
2023-03-26T21:27:51.506Z,101116.62
2023-03-26T21:30:19.398Z,101110.23
2023-03-26T21:32:47.168Z,101109.92
2023-03-26T21:35:16.675Z,101108.98
2023-03-26T21:37:49.218Z,101101.70
2023-03-26T21:40:18.502Z,101096.58
2023-03-26T21:42:51.760Z,101097.58
2023-03-26T21:45:20.033Z,101094.98
2023-03-26T21:47:48.678Z,101095.04
2023-03-26T21:50:18.901Z,101094.40
2023-03-26T21:52:51.098Z,101091.14
2023-03-26T21:55:21.588Z,101088.45
2023-03-26T21:58:28.468Z,101086.34
2023-03-26T22:01:08.984Z,101082.39
2023-03-26T22:04:28.141Z,101076.48
2023-03-26T22:07:04.471Z,101072.55
2023-03-26T22:09:36.423Z,101067.42
2023-03-26T22:12:04.830Z,101065.52
2023-03-26T22:14:31.792Z,101065.05
2023-03-26T22:16:58.693Z,101062.15
2023-03-26T22:19:26.473Z,101058.67
2023-03-26T22:21:54.612Z,101062.39
2023-03-26T22:24:21.532Z,101061.43
2023-03-26T22:26:48.709Z,101058.80
2023-03-26T22:29:16.982Z,101049.64
2023-03-26T22:31:44.033Z,101050.08
2023-03-26T22:34:12.061Z,101044.25
2023-03-26T22:36:40.472Z,101034.52
2023-03-26T22:39:07.570Z,101034.77
2023-03-26T22:41:34.453Z,101028.51
2023-03-26T22:44:16.856Z,101030.67
2023-03-26T22:46:49.509Z,101029.73
2023-03-26T22:49:17.442Z,101024.14
2023-03-26T22:51:44.501Z,101022.27
2023-03-26T22:54:11.559Z,101024.29
2023-03-26T22:56:38.651Z,101024.89
2023-03-26T22:59:05.690Z,101024.60
2023-03-26T23:01:32.787Z,101025.78
2023-03-26T23:03:59.828Z,101026.99
2023-03-26T23:06:26.857Z,101025.64
2023-03-26T23:08:54.738Z,101022.83
2023-03-26T23:11:24.574Z,101021.77
2023-03-26T23:13:52.158Z,101021.56
2023-03-26T23:16:21.704Z,101018.80
2023-03-26T23:18:48.866Z,101024.95
2023-03-26T23:21:21.938Z,101025.27
2023-03-26T23:23:50.008Z,101024.58
2023-03-26T23:26:17.297Z,101030.41
2023-03-26T23:28:44.388Z,101030.04
2023-03-26T23:31:12.643Z,101028.46
2023-03-26T23:33:46.315Z,101028.45
2023-03-26T23:36:18.320Z,101029.19
2023-03-26T23:38:47.059Z,101028.19
2023-03-26T23:41:19.681Z,101025.48
2023-03-26T23:43:53.793Z,101025.11
2023-03-26T23:46:24.602Z,101021.62
2023-03-26T23:48:52.383Z,101021.48
2023-03-26T23:51:20.493Z,101021.47
2023-03-26T23:53:49.422Z,101018.77
2023-03-26T23:56:16.887Z,101014.71
2023-03-26T23:58:44.164Z,101015.51
